Terminal Aerodrome Forecast
Issued by NWS

Home | Current Version | Previous Version | Text Only | Print | Product List | Glossary On
Versions: 1 2 3 4 5 6 7 8 9 10 11 12 13 14 15 16
705
FTUS42 KTAE 271720
TAFDHN
TAF
KDHN 271720Z 2718/2818 18010KT P6SM SCT050
     FM280000 21004KT P6SM OVC250
     FM280700 21004KT 2SM BR SCT004
     FM280900 21004KT 1/2SM FG BKN002
     FM281300 22005KT 3SM BR SCT002
     FM281400 23008KT P6SM BKN250=

USA.gov is the U.S. government's official web portal to all federal, state and local government web resources and services.